Time;durP1;ratioP1;P1;durP2;ratioP2;P2;SDS_P1;SDS_P2;PMS_P1;PMS_P2;Temp;Humidity;BMP_temperature;BMP_pressure;BME280_temperature;BME280_humidity;BME280_pressure;Samples;Min_cycle;Max_cycle;Signal;HPM_P1;HPM_P2
2021/07/29 00:00:45;;;;;;;13.10;2.70;;;16.30;99.90;;;;;;1991007;72;21028;-78
2021/07/29 00:03:11;;;;;;;3.70;2.67;;;16.20;99.90;;;;;;1991004;72;21080;-77
2021/07/29 00:05:37;;;;;;;3.77;2.70;;;16.20;99.90;;;;;;1991021;72;21051;-78
2021/07/29 00:08:03;;;;;;;7.28;3.05;;;16.20;99.90;;;;;;1991056;72;21051;-77
2021/07/29 00:10:30;;;;;;;2.98;2.62;;;16.20;99.90;;;;;;1991181;72;21082;-77
2021/07/29 00:12:56;;;;;;;3.67;2.87;;;16.20;99.90;;;;;;1991106;72;21060;-77
2021/07/29 00:15:22;;;;;;;5.35;2.35;;;16.20;99.90;;;;;;1991055;72;21116;-77
2021/07/29 00:20:16;;;;;;;3.33;2.90;;;16.10;99.90;;;;;;1990843;71;21078;-77
2021/07/29 00:22:42;;;;;;;3.50;2.80;;;16.10;99.90;;;;;;1990986;72;21051;-78
2021/07/29 00:25:12;;;;;;;3.83;2.75;;;16.00;99.90;;;;;;1991080;72;21047;-77
2021/07/29 00:27:36;;;;;;;2.40;2.20;;;16.00;99.90;;;;;;1990954;71;21456;-78
2021/07/29 00:30:02;;;;;;;7.17;2.92;;;15.90;99.90;;;;;;1991133;72;21416;-78
2021/07/29 00:32:28;;;;;;;2.85;2.47;;;15.90;99.90;;;;;;1991210;72;21537;-77
2021/07/29 00:34:54;;;;;;;2.92;2.20;;;15.90;99.90;;;;;;1991039;72;21584;-77
2021/07/29 00:37:20;;;;;;;3.77;2.90;;;15.80;99.90;;;;;;1991007;72;21484;-77
2021/07/29 00:39:46;;;;;;;5.83;3.05;;;15.80;99.90;;;;;;1991167;72;21390;-77
2021/07/29 00:42:13;;;;;;;3.15;2.72;;;15.70;99.90;;;;;;1990973;72;21051;-77
2021/07/29 00:44:39;;;;;;;5.40;2.60;;;15.70;99.90;;;;;;1991344;72;21048;-78
2021/07/29 00:47:05;;;;;;;3.20;2.90;;;15.70;99.90;;;;;;1991298;72;21094;-77
2021/07/29 00:49:31;;;;;;;9.43;3.17;;;15.70;99.90;;;;;;1991264;72;21150;-77
2021/07/29 00:51:57;;;;;;;4.95;3.00;;;15.70;99.90;;;;;;1991231;71;21059;-77
2021/07/29 00:54:27;;;;;;;3.62;3.12;;;15.70;99.90;;;;;;1991264;72;21051;-77
2021/07/29 00:56:51;;;;;;;4.45;2.45;;;15.70;99.90;;;;;;1990920;71;21055;-78
2021/07/29 00:59:17;;;;;;;3.17;2.87;;;15.60;99.90;;;;;;1990996;72;21055;-77
2021/07/29 01:01:43;;;;;;;3.75;2.72;;;15.70;99.90;;;;;;1991134;72;21020;-77
2021/07/29 01:04:09;;;;;;;6.47;3.33;;;15.70;99.90;;;;;;1991028;72;21055;-77
2021/07/29 01:06:36;;;;;;;9.05;3.25;;;15.70;99.90;;;;;;1991240;72;21051;-77
2021/07/29 01:09:02;;;;;;;6.87;2.90;;;15.80;99.90;;;;;;1991341;72;21044;-77
2021/07/29 01:11:28;;;;;;;5.65;2.72;;;15.80;99.90;;;;;;1991189;72;21557;-77
2021/07/29 01:13:54;;;;;;;4.20;2.90;;;15.80;99.90;;;;;;1991137;72;21514;-77
2021/07/29 01:16:21;;;;;;;7.25;3.37;;;15.80;99.90;;;;;;1991038;72;21579;-77
2021/07/29 01:18:47;;;;;;;3.12;2.58;;;15.90;99.90;;;;;;1991311;72;21455;-77
2021/07/29 01:21:13;;;;;;;6.05;3.40;;;15.90;99.90;;;;;;1991021;72;21589;-77
2021/07/29 01:23:39;;;;;;;4.03;2.58;;;15.80;99.90;;;;;;1991195;72;21479;-77
2021/07/29 01:26:05;;;;;;;4.28;2.77;;;15.80;99.90;;;;;;1991147;72;21095;-77
2021/07/29 01:28:31;;;;;;;3.60;2.70;;;15.80;99.90;;;;;;1991223;72;21117;-77
2021/07/29 01:30:57;;;;;;;4.03;3.12;;;15.80;99.90;;;;;;1991005;72;21016;-77
2021/07/29 01:33:23;;;;;;;4.33;3.02;;;15.70;99.90;;;;;;1991194;72;21052;-78
2021/07/29 01:35:50;;;;;;;3.75;2.90;;;15.70;99.90;;;;;;1990958;72;21051;-77
2021/07/29 01:38:16;;;;;;;4.40;2.95;;;15.70;99.90;;;;;;1991247;72;21120;-77
2021/07/29 01:40:42;;;;;;;4.67;2.83;;;15.60;99.90;;;;;;1990405;71;21063;-78
2021/07/29 01:43:08;;;;;;;5.17;2.83;;;15.70;99.90;;;;;;1991222;72;21110;-77
2021/07/29 01:45:34;;;;;;;3.42;2.87;;;15.60;99.90;;;;;;1991096;72;21133;-77
2021/07/29 01:48:00;;;;;;;3.37;3.00;;;15.70;99.90;;;;;;1991177;72;21117;-78
2021/07/29 01:50:26;;;;;;;4.20;2.95;;;15.70;99.90;;;;;;1991203;72;21047;-77
2021/07/29 01:52:52;;;;;;;4.00;2.90;;;15.70;99.90;;;;;;1991183;71;21047;-77
2021/07/29 01:55:19;;;;;;;3.98;3.27;;;15.60;99.90;;;;;;1991233;72;21047;-77
2021/07/29 01:57:45;;;;;;;3.75;3.10;;;15.50;99.90;;;;;;1991190;72;21048;-77
2021/07/29 02:00:11;;;;;;;4.75;3.00;;;15.50;99.90;;;;;;1991088;72;20980;-77
2021/07/29 02:02:37;;;;;;;5.53;2.90;;;15.50;99.90;;;;;;1991164;72;21047;-77
2021/07/29 02:05:03;;;;;;;3.40;3.17;;;15.50;99.90;;;;;;1991096;71;21120;-77
2021/07/29 02:07:29;;;;;;;2.77;2.58;;;15.50;99.90;;;;;;1991010;72;21169;-77
2021/07/29 02:09:55;;;;;;;3.30;3.00;;;15.50;99.90;;;;;;1991291;72;21491;-77
2021/07/29 02:12:21;;;;;;;8.93;2.90;;;15.50;99.90;;;;;;1991111;72;21433;-77
2021/07/29 02:14:48;;;;;;;5.58;3.05;;;15.40;99.90;;;;;;1991179;71;21479;-77
2021/07/29 02:17:14;;;;;;;3.70;2.70;;;15.40;99.90;;;;;;1991007;72;21456;-77
2021/07/29 02:19:40;;;;;;;5.28;3.20;;;15.40;99.90;;;;;;1991144;72;21120;-77
2021/07/29 02:22:06;;;;;;;5.45;3.55;;;15.40;99.90;;;;;;1991117;72;21064;-77
2021/07/29 02:24:32;;;;;;;4.03;2.92;;;15.40;99.90;;;;;;1991174;72;21051;-78
2021/07/29 02:26:58;;;;;;;2.67;2.47;;;15.30;99.90;;;;;;1990984;72;21095;-77
2021/07/29 02:29:24;;;;;;;3.12;2.87;;;15.30;99.90;;;;;;1991394;72;21124;-77
2021/07/29 02:31:51;;;;;;;3.95;2.90;;;15.30;99.90;;;;;;1990975;72;21047;-77
2021/07/29 02:34:17;;;;;;;5.42;3.02;;;15.20;99.90;;;;;;1991070;72;21016;-77
2021/07/29 02:36:43;;;;;;;4.92;3.37;;;15.20;99.90;;;;;;1991198;72;21043;-77
2021/07/29 02:39:09;;;;;;;4.25;3.33;;;15.20;99.90;;;;;;1991006;72;21052;-77
2021/07/29 02:41:36;;;;;;;5.20;3.90;;;15.10;99.90;;;;;;1991137;72;21183;-77
2021/07/29 02:44:02;;;;;;;3.98;2.98;;;15.10;99.90;;;;;;1990936;72;21128;-77
2021/07/29 02:46:29;;;;;;;3.50;3.20;;;15.10;99.90;;;;;;1991181;72;21129;-77
2021/07/29 02:48:55;;;;;;;3.55;3.25;;;15.10;99.90;;;;;;1991058;72;21056;-77
2021/07/29 02:51:21;;;;;;;3.42;3.12;;;15.00;99.90;;;;;;1991226;71;21059;-77
2021/07/29 02:53:47;;;;;;;3.95;2.80;;;15.00;99.90;;;;;;1991063;72;21063;-76
2021/07/29 02:56:13;;;;;;;3.50;3.20;;;15.00;99.90;;;;;;1991165;72;21102;-77
2021/07/29 02:58:39;;;;;;;4.78;3.60;;;15.00;99.90;;;;;;1991082;72;21031;-77
2021/07/29 03:01:05;;;;;;;5.12;3.50;;;15.00;99.90;;;;;;1991163;71;21550;-77
2021/07/29 03:03:32;;;;;;;5.47;3.25;;;15.00;99.90;;;;;;1991127;72;21431;-77
2021/07/29 03:05:58;;;;;;;3.75;3.22;;;15.00;99.90;;;;;;1991077;72;21428;-77
2021/07/29 03:08:24;;;;;;;3.45;3.00;;;15.00;99.90;;;;;;1991120;72;21420;-77
2021/07/29 03:10:50;;;;;;;3.72;3.10;;;14.90;99.90;;;;;;1991077;72;21556;-77
2021/07/29 03:13:16;;;;;;;4.03;3.42;;;15.00;99.90;;;;;;1991100;71;21095;-77
2021/07/29 03:15:42;;;;;;;3.22;3.00;;;15.00;99.90;;;;;;1991187;72;21048;-78
2021/07/29 03:18:08;;;;;;;6.47;3.55;;;15.00;99.90;;;;;;1991232;72;21009;-77
2021/07/29 03:20:34;;;;;;;3.85;3.45;;;14.90;99.90;;;;;;1993908;71;21106;-77
2021/07/29 03:23:01;;;;;;;4.95;3.30;;;14.90;99.90;;;;;;1994830;71;21011;-77
2021/07/29 03:25:27;;;;;;;3.85;3.55;;;14.80;99.90;;;;;;1992624;71;21019;-77
2021/07/29 03:27:53;;;;;;;6.25;3.33;;;14.80;99.90;;;;;;1991196;72;21047;-78
2021/07/29 03:30:19;;;;;;;4.25;3.22;;;14.80;99.90;;;;;;1991209;72;21051;-77
2021/07/29 03:32:45;;;;;;;3.60;3.25;;;14.80;99.90;;;;;;1990988;72;21048;-77
2021/07/29 03:35:11;;;;;;;3.85;3.08;;;14.80;99.90;;;;;;1991265;72;21081;-77
2021/07/29 03:37:37;;;;;;;6.05;3.20;;;14.70;99.90;;;;;;1990976;72;21050;-77
2021/07/29 03:40:06;;;;;;;5.53;3.12;;;14.70;99.90;;;;;;1991180;72;21043;-78
2021/07/29 03:42:32;;;;;;;3.75;3.25;;;14.70;99.90;;;;;;1991133;72;21048;-76
2021/07/29 03:44:59;;;;;;;4.22;3.20;;;14.60;99.90;;;;;;1990976;72;21047;-76
2021/07/29 03:47:25;;;;;;;3.67;2.90;;;14.60;99.90;;;;;;1990985;72;21124;-76
2021/07/29 03:49:51;;;;;;;3.60;3.27;;;14.60;99.90;;;;;;1991100;72;21051;-76
2021/07/29 03:52:17;;;;;;;3.83;3.40;;;14.60;99.90;;;;;;1990993;71;21067;-76
2021/07/29 03:54:44;;;;;;;4.22;3.70;;;14.60;99.90;;;;;;1991129;72;21463;-76
2021/07/29 03:57:10;;;;;;;5.95;3.40;;;14.60;99.90;;;;;;1990988;72;21067;-76
2021/07/29 03:59:36;;;;;;;3.58;3.00;;;14.60;99.90;;;;;;1990966;72;21102;-76
2021/07/29 04:02:08;;;;;;;8.10;3.40;;;14.60;99.90;;;;;;1991031;72;21055;-76
2021/07/29 04:04:30;;;;;;;7.10;3.83;;;14.60;99.90;;;;;;1990729;71;21457;-76
2021/07/29 04:06:57;;;;;;;3.58;3.27;;;14.60;99.90;;;;;;1991048;72;21559;-76
2021/07/29 04:09:24;;;;;;;3.52;3.10;;;14.50;99.90;;;;;;1991145;72;21059;-76
2021/07/29 04:11:50;;;;;;;3.92;3.35;;;14.60;99.90;;;;;;1991044;72;21021;-76
2021/07/29 04:14:16;;;;;;;6.85;3.67;;;14.60;99.90;;;;;;1997267;71;21191;-76
2021/07/29 04:16:42;;;;;;;4.28;3.45;;;14.60;99.90;;;;;;1991177;72;21141;-76
2021/07/29 04:19:08;;;;;;;4.33;3.92;;;14.60;99.90;;;;;;1991059;72;21061;-76
2021/07/29 04:21:34;;;;;;;7.37;4.35;;;14.70;99.90;;;;;;1991002;71;21051;-77
2021/07/29 04:24:00;;;;;;;7.62;4.30;;;14.70;99.90;;;;;;1991037;72;21132;-76
2021/07/29 04:26:26;;;;;;;8.70;3.98;;;14.80;99.90;;;;;;1991085;72;21176;-76
2021/07/29 04:28:53;;;;;;;15.10;3.80;;;14.80;99.90;;;;;;1993378;71;21029;-77
2021/07/29 04:31:19;;;;;;;5.58;3.52;;;14.80;99.90;;;;;;1991045;72;21148;-77
2021/07/29 04:33:45;;;;;;;9.78;3.37;;;14.90;99.90;;;;;;1991224;71;21432;-76
2021/07/29 04:36:11;;;;;;;5.08;3.30;;;15.00;99.90;;;;;;1991240;71;21487;-77
2021/07/29 04:38:37;;;;;;;4.90;3.80;;;15.00;99.90;;;;;;1991008;72;21400;-77
2021/07/29 04:41:03;;;;;;;5.03;3.45;;;15.10;99.90;;;;;;1991003;72;21571;-77
2021/07/29 04:43:29;;;;;;;6.28;3.80;;;15.20;99.90;;;;;;1991020;71;21121;-77
2021/07/29 04:45:56;;;;;;;4.05;3.40;;;15.30;99.90;;;;;;1990983;72;21103;-77
2021/07/29 04:48:22;;;;;;;3.58;3.27;;;15.40;99.90;;;;;;1990958;72;21133;-77
2021/07/29 04:50:48;;;;;;;5.08;3.80;;;15.50;99.90;;;;;;1991021;71;21141;-77
2021/07/29 04:53:14;;;;;;;3.25;2.95;;;15.50;99.90;;;;;;1990995;72;21024;-77
2021/07/29 04:55:40;;;;;;;7.35;3.50;;;15.60;99.90;;;;;;1991085;71;21067;-76
2021/07/29 04:58:06;;;;;;;4.90;3.58;;;15.70;99.90;;;;;;1990936;72;21154;-77
2021/07/29 05:00:32;;;;;;;6.92;4.25;;;15.80;99.90;;;;;;1991012;72;21024;-76
2021/07/29 05:02:59;;;;;;;3.83;3.45;;;15.80;99.90;;;;;;1991283;72;21141;-77
2021/07/29 05:05:25;;;;;;;7.20;3.75;;;15.90;99.90;;;;;;1991006;72;21054;-77
2021/07/29 05:07:52;;;;;;;4.85;4.30;;;15.90;99.90;;;;;;1991281;72;21048;-81
2021/07/29 05:10:18;;;;;;;4.62;3.58;;;15.90;99.90;;;;;;1991367;71;21144;-77
2021/07/29 05:12:44;;;;;;;6.80;4.03;;;16.00;99.90;;;;;;1991163;72;21478;-77
2021/07/29 05:15:10;;;;;;;5.80;3.90;;;16.10;99.90;;;;;;1991080;72;21408;-77
2021/07/29 05:17:36;;;;;;;7.62;4.25;;;15.90;99.90;;;;;;1991269;71;21538;-77
2021/07/29 05:20:02;;;;;;;3.80;3.45;;;16.00;99.90;;;;;;1991698;72;21529;-77
2021/07/29 05:22:28;;;;;;;5.37;4.35;;;16.00;99.90;;;;;;1991017;72;21468;-77
2021/07/29 05:24:55;;;;;;;6.35;4.03;;;16.10;99.90;;;;;;1991211;72;21454;-77
2021/07/29 05:27:21;;;;;;;5.62;3.83;;;16.20;99.90;;;;;;1990993;71;21496;-77
2021/07/29 05:29:47;;;;;;;14.20;9.35;;;16.30;99.90;;;;;;1991230;71;21181;-77
2021/07/29 05:32:13;;;;;;;10.82;4.30;;;16.40;99.90;;;;;;1991018;71;21129;-78
2021/07/29 05:34:39;;;;;;;6.53;4.05;;;16.40;99.90;;;;;;1991211;72;21120;-79
2021/07/29 05:37:05;;;;;;;5.30;3.45;;;16.50;99.90;;;;;;1991164;71;21059;-78
2021/07/29 05:39:31;;;;;;;8.65;4.05;;;16.70;99.90;;;;;;1991099;71;21137;-78
2021/07/29 05:41:57;;;;;;;6.47;3.47;;;16.70;99.90;;;;;;1991104;72;21067;-77
2021/07/29 05:44:24;;;;;;;7.65;3.60;;;16.80;99.90;;;;;;1991144;72;21136;-78
2021/07/29 05:46:50;;;;;;;5.40;3.50;;;16.90;99.90;;;;;;1991131;71;21046;-77
2021/07/29 05:49:16;;;;;;;4.90;4.12;;;17.00;99.90;;;;;;1991132;72;21055;-79
2021/07/29 05:51:42;;;;;;;4.50;3.87;;;17.00;99.90;;;;;;1991236;72;21019;-77
2021/07/29 05:54:11;;;;;;;7.03;3.30;;;17.10;99.90;;;;;;1991048;72;21067;-78
2021/07/29 05:56:37;;;;;;;4.00;3.08;;;17.30;99.90;;;;;;1991227;71;21099;-77
2021/07/29 05:59:04;;;;;;;5.17;3.47;;;17.50;99.90;;;;;;1991223;71;21051;-78
2021/07/29 06:01:31;;;;;;;5.12;3.30;;;17.60;99.90;;;;;;1991230;71;21064;-78
2021/07/29 06:03:57;;;;;;;3.72;3.02;;;17.70;99.90;;;;;;1991105;71;21157;-78
2021/07/29 06:06:23;;;;;;;5.03;3.33;;;17.70;99.90;;;;;;1991342;72;21059;-78
2021/07/29 06:08:53;;;;;;;6.15;3.60;;;17.80;99.90;;;;;;1991054;72;21133;-78
2021/07/29 06:11:19;;;;;;;4.20;3.25;;;17.90;99.90;;;;;;1990837;71;21499;-78
2021/07/29 06:13:45;;;;;;;5.92;3.50;;;18.00;99.90;;;;;;1991016;71;21069;-78
2021/07/29 06:16:11;;;;;;;7.78;4.05;;;18.00;99.90;;;;;;1991022;71;21137;-78
2021/07/29 06:18:47;;;;;;;4.58;3.20;;;18.10;99.90;;;;;;1991100;72;21128;-78
2021/07/29 06:21:05;;;;;;;7.33;3.30;;;18.30;99.90;;;;;;1990234;71;21100;-78
2021/07/29 06:23:31;;;;;;;8.88;3.15;;;18.20;99.90;;;;;;1991089;72;21067;-79
2021/07/29 06:25:57;;;;;;;3.83;2.95;;;18.50;99.90;;;;;;1991251;72;21513;-78
2021/07/29 06:28:30;;;;;;;5.40;2.65;;;19.00;99.90;;;;;;1977752;72;21460;-78
2021/07/29 06:30:51;;;;;;;4.05;3.05;;;19.50;99.90;;;;;;1990773;71;21067;-78
2021/07/29 06:33:19;;;;;;;5.47;2.75;;;20.20;99.90;;;;;;1991257;71;21133;-79
2021/07/29 06:35:45;;;;;;;5.72;2.60;;;20.30;99.90;;;;;;1991112;71;21065;-77
2021/07/29 06:38:11;;;;;;;3.22;2.90;;;20.50;99.90;;;;;;1991169;72;21059;-78
2021/07/29 06:40:37;;;;;;;7.60;2.90;;;20.30;99.90;;;;;;1991272;72;21059;-77
2021/07/29 06:43:04;;;;;;;2.67;2.20;;;20.80;99.90;;;;;;1991134;72;21130;-78
2021/07/29 06:45:31;;;;;;;3.17;2.58;;;21.70;99.90;;;;;;1991185;72;21063;-78
2021/07/29 06:47:57;;;;;;;3.35;1.92;;;22.50;99.90;;;;;;1991120;72;21098;-78
2021/07/29 06:50:26;;;;;;;4.37;2.55;;;23.60;99.90;;;;;;1991252;72;21056;-78
2021/07/29 06:52:52;;;;;;;6.03;1.98;;;24.30;99.90;;;;;;1991433;72;21140;-78
2021/07/29 06:55:18;;;;;;;4.12;2.02;;;24.70;99.90;;;;;;1991292;72;21051;-77
2021/07/29 06:57:44;;;;;;;3.50;1.85;;;25.30;99.90;;;;;;1991038;72;21055;-79
2021/07/29 07:00:10;;;;;;;3.55;1.70;;;25.50;99.90;;;;;;1991240;72;21055;-79
2021/07/29 07:02:36;;;;;;;3.35;1.92;;;25.20;99.90;;;;;;1991088;72;21114;-79
2021/07/29 07:05:03;;;;;;;7.95;1.80;;;25.40;99.90;;;;;;1991155;72;21129;-77
2021/07/29 07:07:29;;;;;;;4.62;1.80;;;25.20;99.90;;;;;;1991238;72;21056;-76
2021/07/29 07:09:55;;;;;;;1.62;1.50;;;24.20;99.90;;;;;;1991168;72;21064;-77
2021/07/29 07:12:21;;;;;;;2.65;1.80;;;23.60;99.90;;;;;;1991155;72;21036;-77
2021/07/29 07:14:47;;;;;;;1.42;1.27;;;23.90;99.90;;;;;;1991096;72;21434;-77
2021/07/29 07:17:13;;;;;;;3.65;1.67;;;23.70;99.90;;;;;;1991116;72;21487;-77
2021/07/29 07:19:39;;;;;;;3.33;1.42;;;23.80;99.90;;;;;;1991062;72;21539;-77
2021/07/29 07:22:06;;;;;;;4.78;1.62;;;24.60;99.90;;;;;;1991218;72;21129;-77
2021/07/29 07:24:32;;;;;;;2.40;1.30;;;24.20;99.90;;;;;;1991097;72;21141;-78
2021/07/29 07:26:58;;;;;;;6.55;1.47;;;24.30;99.90;;;;;;1991245;72;21060;-81
2021/07/29 07:29:24;;;;;;;3.85;1.40;;;23.90;99.90;;;;;;1991037;71;21060;-80
2021/07/29 07:31:50;;;;;;;1.85;1.17;;;24.20;99.90;;;;;;1991244;72;21063;-83
2021/07/29 07:34:16;;;;;;;6.33;1.62;;;24.50;99.90;;;;;;1991155;72;21571;-79
2021/07/29 07:36:42;;;;;;;2.40;1.50;;;24.40;99.90;;;;;;1991125;72;21516;-80
2021/07/29 07:39:10;;;;;;;2.85;1.60;;;24.10;99.90;;;;;;1991134;71;21516;-78
2021/07/29 07:41:36;;;;;;;1.40;1.30;;;24.30;99.90;;;;;;1991086;71;21135;-82
2021/07/29 07:44:02;;;;;;;1.87;1.57;;;24.00;99.90;;;;;;1991133;72;21164;-81
2021/07/29 07:46:29;;;;;;;5.12;1.70;;;24.30;99.90;;;;;;1991300;72;21012;-82
2021/07/29 07:48:55;;;;;;;3.62;1.70;;;24.20;99.90;;;;;;1991161;72;21130;-81
2021/07/29 07:51:21;;;;;;;2.17;1.75;;;23.50;99.90;;;;;;1991156;72;21140;-82
2021/07/29 07:53:47;;;;;;;2.75;1.85;;;23.90;99.90;;;;;;1991124;72;21110;-82
2021/07/29 07:56:13;;;;;;;1.72;1.62;;;24.00;99.90;;;;;;1991135;71;21008;-79
2021/07/29 07:58:39;;;;;;;2.72;1.70;;;23.90;99.90;;;;;;2016111;71;21032;-80
2021/07/29 08:01:05;;;;;;;2.52;1.72;;;24.30;99.90;;;;;;1999403;71;21009;-79
2021/07/29 08:03:32;;;;;;;2.10;1.70;;;24.70;99.90;;;;;;1993907;72;21012;-80
2021/07/29 08:05:58;;;;;;;3.58;1.85;;;25.00;99.90;;;;;;1991370;72;21133;-79
2021/07/29 08:08:24;;;;;;;2.58;1.62;;;24.60;99.90;;;;;;1991289;71;21055;-80
2021/07/29 08:10:50;;;;;;;5.28;1.95;;;23.70;99.90;;;;;;1997576;69;21078;-79
2021/07/29 08:13:16;;;;;;;4.10;1.80;;;23.30;99.90;;;;;;1991630;72;21456;-80
2021/07/29 08:15:42;;;;;;;10.78;2.00;;;23.20;99.90;;;;;;1991372;72;21040;-81
2021/07/29 08:18:11;;;;;;;3.12;1.77;;;23.30;99.90;;;;;;1991366;71;21044;-80
2021/07/29 08:20:36;;;;;;;9.15;2.10;;;23.40;99.90;;;;;;1991356;71;21860;-80
2021/07/29 08:23:02;;;;;;;3.02;1.77;;;23.70;99.90;;;;;;1991114;72;21432;-80
2021/07/29 08:25:29;;;;;;;7.67;1.80;;;23.90;99.90;;;;;;1991199;71;21458;-80
2021/07/29 08:27:55;;;;;;;4.90;1.95;;;23.40;99.90;;;;;;1991009;72;21044;-79
2021/07/29 08:30:21;;;;;;;1.70;1.60;;;23.70;99.90;;;;;;1991187;72;21039;-80
2021/07/29 08:32:47;;;;;;;2.92;1.77;;;23.80;99.90;;;;;;1991001;71;21056;-79
2021/07/29 08:35:13;;;;;;;2.52;1.90;;;23.60;99.90;;;;;;1991213;72;21039;-79
2021/07/29 08:37:44;;;;;;;5.33;1.67;;;23.70;99.90;;;;;;1990988;72;21113;-79
2021/07/29 08:40:07;;;;;;;3.50;2.20;;;24.10;99.90;;;;;;1990933;71;21483;-82
2021/07/29 08:42:33;;;;;;;4.58;2.00;;;24.30;99.90;;;;;;1991307;72;21377;-80
2021/07/29 08:44:59;;;;;;;12.58;1.90;;;24.10;99.90;;;;;;1991132;71;21444;-78
2021/07/29 08:47:25;;;;;;;2.00;1.80;;;24.20;99.90;;;;;;1991392;72;21447;-78
2021/07/29 08:49:51;;;;;;;3.12;2.08;;;24.20;99.90;;;;;;1991101;71;21467;-79
2021/07/29 08:52:18;;;;;;;3.15;2.10;;;24.40;99.90;;;;;;1991243;72;21576;-78
2021/07/29 08:54:45;;;;;;;3.92;2.27;;;24.70;99.90;;;;;;1991154;72;21451;-77
2021/07/29 08:57:11;;;;;;;3.58;2.02;;;24.30;99.90;;;;;;1991268;72;21052;-78
2021/07/29 08:59:37;;;;;;;5.45;1.90;;;24.50;99.90;;;;;;1991115;72;21233;-79
2021/07/29 09:02:04;;;;;;;4.47;2.00;;;24.70;99.90;;;;;;1991212;72;21016;-78
2021/07/29 09:04:30;;;;;;;4.20;2.00;;;25.10;99.90;;;;;;1991146;72;21067;-80
2021/07/29 09:06:57;;;;;;;2.12;1.65;;;25.30;99.90;;;;;;1991163;72;21129;-79
2021/07/29 09:09:23;;;;;;;5.42;2.00;;;25.00;99.90;;;;;;1991158;72;21051;-79
2021/07/29 09:11:49;;;;;;;2.85;1.65;;;24.80;99.90;;;;;;1991250;72;21045;-78
2021/07/29 09:14:23;;;;;;;2.25;1.85;;;24.50;99.90;;;;;;1991257;72;21047;-79
2021/07/29 09:16:49;;;;;;;2.67;1.90;;;24.60;99.90;;;;;;1991043;71;21107;-78
2021/07/29 09:19:15;;;;;;;3.02;2.10;;;24.70;99.90;;;;;;1991155;72;21043;-77
2021/07/29 09:21:41;;;;;;;3.17;1.92;;;23.90;99.90;;;;;;1991153;72;21120;-78
2021/07/29 09:24:09;;;;;;;2.92;2.30;;;23.90;99.90;;;;;;1991237;72;21087;-78
2021/07/29 09:26:35;;;;;;;4.62;1.72;;;23.80;99.90;;;;;;1991074;71;21061;-79
2021/07/29 09:29:01;;;;;;;4.03;2.00;;;24.30;99.90;;;;;;1991136;71;21117;-79
2021/07/29 09:31:27;;;;;;;2.90;2.00;;;24.50;99.90;;;;;;1991128;72;21156;-77
2021/07/29 09:33:54;;;;;;;4.87;2.00;;;24.20;99.90;;;;;;1991139;72;21044;-79
2021/07/29 09:36:20;;;;;;;2.05;1.77;;;24.30;99.90;;;;;;1991144;72;21020;-78
2021/07/29 09:38:46;;;;;;;4.72;2.02;;;24.50;99.90;;;;;;1991216;72;21048;-78
2021/07/29 09:41:12;;;;;;;1.90;1.70;;;24.20;99.90;;;;;;1991079;72;21129;-83
2021/07/29 09:43:38;;;;;;;9.18;1.92;;;24.50;99.90;;;;;;1991091;72;21024;-77
2021/07/29 09:46:04;;;;;;;2.75;1.87;;;24.10;99.90;;;;;;1990955;72;21044;-78
2021/07/29 09:48:30;;;;;;;2.58;1.70;;;24.50;99.90;;;;;;1957722;72;21067;-81
2021/07/29 09:50:58;;;;;;;2.80;1.80;;;24.90;99.90;;;;;;1955959;72;21099;-80
2021/07/29 09:53:24;;;;;;;2.25;1.92;;;24.90;99.90;;;;;;1956242;73;21082;-80
2021/07/29 09:55:51;;;;;;;2.65;1.72;;;25.10;99.90;;;;;;1956275;73;21032;-79
2021/07/29 09:58:17;;;;;;;2.70;1.92;;;25.20;99.90;;;;;;1956140;73;21137;-79
2021/07/29 10:00:43;;;;;;;2.98;1.85;;;25.70;99.90;;;;;;1956238;73;21071;-81
2021/07/29 10:03:09;;;;;;;2.30;1.77;;;25.20;99.90;;;;;;1956172;72;21132;-79
2021/07/29 10:05:36;;;;;;;2.55;1.70;;;25.00;99.90;;;;;;1956075;73;21062;-80
2021/07/29 10:08:04;;;;;;;3.50;1.90;;;24.90;99.90;;;;;;1956162;73;21140;-80
2021/07/29 10:10:30;;;;;;;2.25;2.08;;;25.30;99.90;;;;;;1968784;72;21099;-80
2021/07/29 10:12:56;;;;;;;3.75;2.05;;;25.20;99.90;;;;;;1962881;72;21066;-79
2021/07/29 10:15:22;;;;;;;2.50;2.10;;;25.40;99.90;;;;;;1955912;73;21092;-79
2021/07/29 10:17:51;;;;;;;3.05;1.80;;;24.60;99.90;;;;;;1958051;72;21234;-80
2021/07/29 10:20:17;;;;;;;2.27;2.00;;;23.80;99.90;;;;;;1956026;72;21137;-80
2021/07/29 10:22:44;;;;;;;8.45;2.20;;;23.70;99.90;;;;;;1956135;73;21074;-80
2021/07/29 10:25:10;;;;;;;4.53;2.15;;;23.60;99.90;;;;;;1956146;73;21140;-78
2021/07/29 10:27:36;;;;;;;2.67;1.85;;;23.90;99.90;;;;;;1956257;73;21062;-76
2021/07/29 10:30:02;;;;;;;8.03;1.92;;;24.30;99.90;;;;;;1945228;73;21058;-78
2021/07/29 10:32:28;;;;;;;2.10;1.90;;;24.20;99.90;;;;;;1958849;73;21135;-76
2021/07/29 10:34:54;;;;;;;2.55;1.90;;;24.30;99.90;;;;;;1962126;72;21066;-77
2021/07/29 10:37:20;;;;;;;2.33;2.08;;;24.30;99.90;;;;;;1955944;73;21084;-75
2021/07/29 10:39:46;;;;;;;3.08;2.00;;;24.60;99.90;;;;;;1956043;73;21083;-72
2021/07/29 10:42:13;;;;;;;5.03;2.25;;;24.50;99.90;;;;;;1955977;73;21165;-74
2021/07/29 10:44:39;;;;;;;2.45;2.02;;;23.90;99.90;;;;;;1956020;73;21099;-76
2021/07/29 10:47:08;;;;;;;2.37;1.90;;;24.10;99.90;;;;;;1957520;72;21084;-82
2021/07/29 10:49:34;;;;;;;2.45;2.05;;;23.90;99.90;;;;;;1943726;73;21120;-85
2021/07/29 10:52:00;;;;;;;3.87;2.20;;;24.00;99.90;;;;;;1958140;72;21072;-84
2021/07/29 10:54:26;;;;;;;3.75;2.05;;;24.40;99.90;;;;;;1957363;73;21168;-82
2021/07/29 10:56:52;;;;;;;4.00;2.30;;;24.70;99.90;;;;;;1957151;73;21161;-79
2021/07/29 10:59:18;;;;;;;1.98;1.82;;;25.20;99.90;;;;;;1956428;73;21094;-83
2021/07/29 11:01:46;;;;;;;2.27;2.08;;;25.00;99.90;;;;;;1956276;73;21063;-82
2021/07/29 11:04:13;;;;;;;3.10;2.10;;;24.20;99.90;;;;;;1956107;73;21071;-80
2021/07/29 11:06:43;;;;;;;4.80;2.42;;;24.40;99.90;;;;;;1955916;73;21180;-80
2021/07/29 11:09:07;;;;;;;5.62;2.50;;;25.10;99.90;;;;;;1954229;73;21072;-81
2021/07/29 11:11:33;;;;;;;2.90;2.42;;;25.70;99.90;;;;;;1956122;73;21055;-80
2021/07/29 11:13:59;;;;;;;2.05;1.95;;;25.70;99.90;;;;;;1955922;73;21099;-78
2021/07/29 11:16:27;;;;;;;2.47;2.27;;;25.50;99.90;;;;;;1956061;72;21494;-77
2021/07/29 11:18:53;;;;;;;3.52;2.15;;;25.50;99.90;;;;;;1955881;72;21516;-83
2021/07/29 11:21:19;;;;;;;2.90;2.20;;;25.60;99.90;;;;;;1956681;73;21580;-84
2021/07/29 11:23:45;;;;;;;2.77;2.02;;;25.70;99.90;;;;;;1956163;73;21491;-80
2021/07/29 11:26:11;;;;;;;3.45;2.00;;;26.30;99.90;;;;;;1956000;72;21177;-83
2021/07/29 11:28:37;;;;;;;2.20;1.92;;;26.10;99.90;;;;;;1956523;73;21032;-82
2021/07/29 11:31:05;;;;;;;2.12;1.95;;;25.80;99.90;;;;;;1956201;72;21223;-80
2021/07/29 11:33:31;;;;;;;3.77;2.45;;;25.60;99.90;;;;;;1956011;73;21095;-80
2021/07/29 11:35:57;;;;;;;2.33;1.87;;;25.40;99.90;;;;;;1956004;73;21140;-81
2021/07/29 11:38:23;;;;;;;4.10;2.02;;;25.70;99.90;;;;;;1955860;73;21100;-81
2021/07/29 11:40:49;;;;;;;4.83;2.40;;;25.60;99.90;;;;;;1956201;73;21070;-82
2021/07/29 11:43:15;;;;;;;3.42;1.82;;;26.00;99.90;;;;;;1955902;73;21087;-81
2021/07/29 11:45:41;;;;;;;3.58;2.00;;;25.40;99.90;;;;;;1956041;73;21062;-81
2021/07/29 11:48:09;;;;;;;6.17;2.50;;;25.20;99.90;;;;;;1955900;73;21096;-81
2021/07/29 11:50:35;;;;;;;2.85;2.42;;;25.60;99.90;;;;;;1956141;73;21140;-81
2021/07/29 11:53:01;;;;;;;6.47;2.47;;;26.10;99.90;;;;;;1956169;73;21064;-80
2021/07/29 11:55:28;;;;;;;4.47;2.47;;;26.00;99.90;;;;;;1955967;73;21052;-81
2021/07/29 11:57:54;;;;;;;2.55;2.20;;;26.70;99.90;;;;;;1956100;72;21549;-81
2021/07/29 12:00:20;;;;;;;3.83;2.02;;;26.60;99.90;;;;;;1955988;73;21527;-81
2021/07/29 12:02:46;;;;;;;2.85;2.12;;;26.70;99.90;;;;;;1955961;73;21539;-80
2021/07/29 12:05:12;;;;;;;3.83;1.85;;;26.10;99.90;;;;;;1956012;72;21472;-81
2021/07/29 12:07:38;;;;;;;4.55;2.10;;;26.30;99.90;;;;;;1956213;73;21466;-80
2021/07/29 12:10:05;;;;;;;3.45;2.15;;;26.60;99.90;;;;;;1955886;73;21479;-80
2021/07/29 12:12:31;;;;;;;7.33;2.37;;;26.80;99.90;;;;;;1956135;73;21157;-81
2021/07/29 12:14:57;;;;;;;2.10;1.90;;;26.60;99.90;;;;;;1956206;73;21058;-81
2021/07/29 12:17:23;;;;;;;5.35;2.55;;;26.50;99.90;;;;;;1956016;72;21031;-80
2021/07/29 12:19:50;;;;;;;4.47;2.02;;;26.40;99.90;;;;;;1956020;72;21067;-81
2021/07/29 12:22:16;;;;;;;2.15;1.82;;;26.30;99.90;;;;;;1955793;73;21091;-81
2021/07/29 12:24:43;;;;;;;2.95;2.20;;;25.70;99.90;;;;;;1956062;73;21070;-80
2021/07/29 12:27:09;;;;;;;2.52;2.00;;;25.80;99.90;;;;;;1956052;72;21123;-80
2021/07/29 12:29:35;;;;;;;7.28;2.37;;;26.40;99.90;;;;;;1956140;73;21059;-81
2021/07/29 12:32:01;;;;;;;4.35;2.25;;;27.50;99.90;;;;;;1956776;73;21227;-81
2021/07/29 12:34:27;;;;;;;3.33;1.92;;;28.20;99.90;;;;;;1959724;72;21149;-80
2021/07/29 12:36:54;;;;;;;2.22;1.92;;;28.40;99.90;;;;;;1959095;72;21497;-82
2021/07/29 12:39:21;;;;;;;6.20;2.12;;;28.80;99.90;;;;;;1956002;72;21511;-81
2021/07/29 12:41:47;;;;;;;2.77;1.90;;;29.20;99.90;;;;;;1955912;73;21519;-80